createdAt,value
2022-09-12T00:00:06.264Z,97675.01
2022-09-12T00:02:59.999Z,97677.96
2022-09-12T00:05:28.320Z,97679.55
2022-09-12T00:07:56.171Z,97679.17
2022-09-12T00:10:24.010Z,97682.41
2022-09-12T00:12:52.980Z,97681.70
2022-09-12T00:15:20.919Z,97683.67
2022-09-12T00:17:48.797Z,97686.79
2022-09-12T00:20:17.446Z,97688.54
2022-09-12T00:22:45.341Z,97690.56
2022-09-12T00:25:13.598Z,97694.37
2022-09-12T00:27:41.428Z,97692.67
2022-09-12T00:30:09.520Z,97691.14
2022-09-12T00:32:37.365Z,97692.89
2022-09-12T00:35:05.998Z,97688.52
2022-09-12T00:37:35.033Z,97689.29
2022-09-12T00:40:03.573Z,97685.16
2022-09-12T00:42:31.417Z,97684.33
2022-09-12T00:44:59.265Z,97692.21
2022-09-12T00:47:29.653Z,97690.08
2022-09-12T00:50:13.796Z,97686.35
2022-09-12T00:52:51.773Z,97686.63
2022-09-12T00:55:23.945Z,97684.14
2022-09-12T00:58:00.223Z,97687.41
2022-09-12T01:00:29.015Z,97687.89
2022-09-12T01:03:05.841Z,97687.98
2022-09-12T01:05:36.715Z,97687.70
2022-09-12T01:08:06.965Z,97691.23
2022-09-12T01:10:36.116Z,97688.36
2022-09-12T01:13:07.984Z,97687.42
2022-09-12T01:15:38.939Z,97689.34
2022-09-12T01:18:12.822Z,97688.41
2022-09-12T01:21:15.298Z,97688.05
2022-09-12T01:23:45.880Z,97693.22
2022-09-12T01:26:41.745Z,97692.96
2022-09-12T01:29:12.449Z,97687.27
2022-09-12T01:31:48.361Z,97688.60
2022-09-12T01:34:49.298Z,97687.13
2022-09-12T01:37:54.320Z,97694.30
2022-09-12T01:40:39.924Z,97695.75
2022-09-12T01:43:22.809Z,97694.83
2022-09-12T01:46:01.188Z,97690.19
2022-09-12T01:48:37.996Z,97689.23
2022-09-12T01:51:20.401Z,97690.44
2022-09-12T01:53:58.068Z,97693.09
2022-09-12T01:56:29.885Z,97687.09
2022-09-12T01:59:22.093Z,97688.63
2022-09-12T02:01:58.950Z,97688.23
2022-09-12T02:04:34.464Z,97690.48
2022-09-12T02:07:11.248Z,97691.42
2022-09-12T02:09:50.214Z,97695.27
2022-09-12T02:12:25.607Z,97690.41
2022-09-12T02:15:02.647Z,97694.54
2022-09-12T02:17:35.394Z,97696.20
2022-09-12T02:20:14.604Z,97697.34
2022-09-12T02:22:52.891Z,97698.82
2022-09-12T02:25:23.335Z,97692.13
2022-09-12T02:28:05.130Z,97695.05
2022-09-12T02:30:42.350Z,97696.77
2022-09-12T02:33:38.410Z,97695.62
2022-09-12T02:36:22.341Z,97695.04
2022-09-12T02:38:50.817Z,97694.56
2022-09-12T02:41:20.586Z,97696.40
2022-09-12T02:43:50.579Z,97691.16
2022-09-12T02:46:38.064Z,97695.92
2022-09-12T02:49:06.464Z,97695.11
2022-09-12T02:51:36.159Z,97697.77
2022-09-12T02:54:07.417Z,97694.14
2022-09-12T02:56:35.998Z,97696.77
2022-09-12T02:59:08.469Z,97692.91
2022-09-12T03:01:56.939Z,97690.60
2022-09-12T03:04:49.030Z,97690.79
2022-09-12T03:07:39.530Z,97694.33
2022-09-12T03:10:25.978Z,97696.83
2022-09-12T03:13:10.943Z,97697.21
2022-09-12T03:15:38.686Z,97698.05
2022-09-12T03:18:47.105Z,97698.95
2022-09-12T03:21:17.872Z,97704.64
2022-09-12T03:24:04.638Z,97705.98
2022-09-12T03:26:45.217Z,97706.40
2022-09-12T03:29:15.217Z,97709.95
2022-09-12T03:31:57.947Z,97709.26
2022-09-12T03:34:28.151Z,97716.48
2022-09-12T03:36:56.181Z,97715.44
2022-09-12T03:39:26.950Z,97715.58
2022-09-12T03:41:56.173Z,97712.53
2022-09-12T03:44:25.143Z,97711.63
2022-09-12T03:46:53.124Z,97714.73
2022-09-12T03:49:21.081Z,97713.38
2022-09-12T03:51:48.930Z,97712.62
2022-09-12T03:54:16.843Z,97713.92
2022-09-12T03:56:44.748Z,97714.52
2022-09-12T03:59:12.643Z,97714.38
2022-09-12T04:01:41.859Z,97718.59
2022-09-12T04:04:10.224Z,97723.45
2022-09-12T04:06:38.462Z,97723.63
2022-09-12T04:09:06.407Z,97723.52
2022-09-12T04:11:35.974Z,97727.38
2022-09-12T04:14:03.816Z,97730.48
2022-09-12T04:16:32.444Z,97727.66
2022-09-12T04:19:00.437Z,97732.85
2022-09-12T04:21:28.356Z,97734.70
2022-09-12T04:23:56.193Z,97732.48
2022-09-12T04:26:24.336Z,97732.45
2022-09-12T04:28:57.726Z,97736.96
2022-09-12T04:31:26.285Z,97731.45
2022-09-12T04:34:00.885Z,97737.27
2022-09-12T04:36:29.711Z,97737.31
2022-09-12T04:38:58.782Z,97737.67
2022-09-12T04:41:32.398Z,97739.30
2022-09-12T04:44:03.233Z,97733.70
2022-09-12T04:46:36.750Z,97740.27
2022-09-12T04:49:05.854Z,97739.98
2022-09-12T04:51:36.278Z,97745.08
2022-09-12T04:54:12.923Z,97748.66
2022-09-12T04:56:43.280Z,97749.84
2022-09-12T04:59:13.728Z,97755.43
2022-09-12T05:01:41.709Z,97754.16
2022-09-12T05:04:13.089Z,97755.52
2022-09-12T05:06:42.256Z,97761.70
2022-09-12T05:09:14.338Z,97765.08
2022-09-12T05:12:03.644Z,97763.34
2022-09-12T05:14:33.223Z,97765.77
2022-09-12T05:17:02.000Z,97764.38
2022-09-12T05:19:31.164Z,97766.27
2022-09-12T05:22:00.437Z,97767.51
2022-09-12T05:24:28.466Z,97770.13
2022-09-12T05:26:56.453Z,97772.11
2022-09-12T05:29:25.725Z,97775.13
2022-09-12T05:31:53.876Z,97781.80
2022-09-12T05:34:21.860Z,97779.42
2022-09-12T05:36:49.741Z,97784.23
2022-09-12T05:39:18.745Z,97790.98
2022-09-12T05:41:47.515Z,97787.41
2022-09-12T05:44:15.879Z,97789.23
2022-09-12T05:46:46.818Z,97790.48
2022-09-12T05:49:14.796Z,97783.82
2022-09-12T05:51:45.239Z,97782.31
2022-09-12T05:54:15.866Z,97784.19
2022-09-12T05:56:45.079Z,97787.87
2022-09-12T05:59:16.834Z,97786.34
2022-09-12T06:01:45.414Z,97786.88
2022-09-12T06:04:13.560Z,97787.06
2022-09-12T06:06:45.591Z,97786.02
2022-09-12T06:09:15.937Z,97784.07
2022-09-12T06:11:45.448Z,97784.15
2022-09-12T06:14:17.169Z,97793.05
2022-09-12T06:16:47.363Z,97792.15
2022-09-12T06:19:20.588Z,97795.20
2022-09-12T06:21:51.724Z,97799.33
2022-09-12T06:24:21.192Z,97796.08
2022-09-12T06:26:50.234Z,97795.67
2022-09-12T06:29:19.482Z,97796.46
2022-09-12T06:31:47.387Z,97795.03
2022-09-12T06:34:16.294Z,97792.27
2022-09-12T06:36:47.407Z,97795.89
2022-09-12T06:39:20.736Z,97800.66
2022-09-12T06:41:50.575Z,97803.67
2022-09-12T06:44:22.857Z,97804.05
2022-09-12T06:46:50.981Z,97800.52
2022-09-12T06:49:18.882Z,97802.67
2022-09-12T06:51:46.916Z,97809.52
2022-09-12T06:54:17.372Z,97810.38
2022-09-12T06:56:45.694Z,97815.95
2022-09-12T06:59:14.084Z,97823.30
2022-09-12T07:01:45.222Z,97827.05
2022-09-12T07:04:13.195Z,97825.84
2022-09-12T07:06:43.050Z,97829.44
2022-09-12T07:09:16.553Z,97828.09
2022-09-12T07:11:46.002Z,97825.64
2022-09-12T07:18:51.256Z,97827.48
2022-09-12T07:21:20.022Z,97829.96
2022-09-12T07:23:49.289Z,97831.77
2022-09-12T07:26:17.669Z,97832.60
2022-09-12T07:28:45.841Z,97829.66
2022-09-12T07:31:19.555Z,97835.04
2022-09-12T07:33:51.179Z,97833.27
2022-09-12T07:36:23.571Z,97832.02
2022-09-12T07:38:57.686Z,97836.53
2022-09-12T07:41:29.981Z,97839.98
2022-09-12T07:43:59.773Z,97837.11
2022-09-12T07:46:31.191Z,97841.15
2022-09-12T07:49:01.257Z,97838.14
2022-09-12T07:51:30.721Z,97841.06
2022-09-12T07:53:58.734Z,97841.69
2022-09-12T07:56:31.083Z,97844.34
2022-09-12T07:58:59.969Z,97841.61
2022-09-12T08:01:28.175Z,97843.22
2022-09-12T08:03:58.592Z,97845.05
2022-09-12T08:06:30.540Z,97846.66
2022-09-12T08:08:59.753Z,97843.80
2022-09-12T08:11:29.749Z,97847.06
2022-09-12T08:13:58.641Z,97849.34
2022-09-12T08:16:30.352Z,97851.19
2022-09-12T08:19:01.926Z,97848.86
2022-09-12T08:21:31.966Z,97846.98
2022-09-12T08:24:03.039Z,97849.98
2022-09-12T08:26:34.351Z,97849.16
2022-09-12T08:29:08.369Z,97848.72
2022-09-12T08:31:39.233Z,97850.27
2022-09-12T08:34:08.081Z,97849.35
2022-09-12T08:36:36.368Z,97842.02
2022-09-12T08:39:07.441Z,97841.52
2022-09-12T08:41:35.706Z,97839.66
2022-09-12T08:44:03.539Z,97840.71
2022-09-12T08:46:31.731Z,97845.91
2022-09-12T08:49:02.592Z,97843.55
2022-09-12T08:51:34.884Z,97840.61
2022-09-12T08:54:05.780Z,97846.06
2022-09-12T08:56:37.756Z,97838.35
2022-09-12T08:59:05.669Z,97841.29
2022-09-12T09:01:42.067Z,97832.45
2022-09-12T09:04:29.133Z,97845.70
2022-09-12T09:07:23.199Z,97840.50
2022-09-12T09:10:14.387Z,97842.19
2022-09-12T09:13:07.226Z,97842.62
2022-09-12T09:16:03.331Z,97848.89
2022-09-12T09:18:36.106Z,97844.90
2022-09-12T09:21:15.102Z,97847.64
2022-09-12T09:23:47.155Z,97847.05
2022-09-12T09:26:26.553Z,97848.31
2022-09-12T09:29:14.769Z,97856.80
2022-09-12T09:31:43.573Z,97848.10
2022-09-12T09:34:22.301Z,97845.30
2022-09-12T09:36:55.740Z,97847.77
2022-09-12T09:39:26.647Z,97850.10
2022-09-12T09:42:17.116Z,97849.38
2022-09-12T09:44:48.397Z,97847.48
2022-09-12T09:47:19.779Z,97848.86
2022-09-12T09:49:47.852Z,97843.81
2022-09-12T09:52:21.183Z,97846.02
2022-09-12T09:54:57.698Z,97840.38
2022-09-12T09:57:40.161Z,97841.48
2022-09-12T10:00:27.378Z,97852.52
2022-09-12T10:03:04.955Z,97853.41
2022-09-12T10:05:37.240Z,97849.89
2022-09-12T10:08:08.272Z,97853.27
2022-09-12T10:10:36.202Z,97857.43
2022-09-12T10:13:24.087Z,97853.13
2022-09-12T10:16:02.242Z,97848.95
2022-09-12T10:18:42.450Z,97850.20
2022-09-12T10:21:23.653Z,97851.08
2022-09-12T10:24:00.231Z,97856.33
2022-09-12T10:26:33.809Z,97853.46
2022-09-12T10:29:27.011Z,97848.53
2022-09-12T10:31:58.939Z,97837.63
2022-09-12T10:34:32.519Z,97855.08
2022-09-12T10:37:09.719Z,97850.49
2022-09-12T10:39:39.064Z,97840.71
2022-09-12T10:42:07.403Z,97850.91
2022-09-12T10:44:35.740Z,97846.18
2022-09-12T10:47:24.784Z,97844.39
2022-09-12T10:49:52.623Z,97835.05
2022-09-12T10:52:26.092Z,97842.20
2022-09-12T10:54:54.733Z,97843.67
2022-09-12T10:57:33.405Z,97847.14
2022-09-12T11:00:17.870Z,97828.05
2022-09-12T11:03:22.926Z,97846.27
2022-09-12T11:06:02.359Z,97834.50
2022-09-12T11:08:37.551Z,97829.34
2022-09-12T11:11:14.777Z,97824.34
2022-09-12T11:14:07.640Z,97835.40
2022-09-12T11:17:12.866Z,97839.79
2022-09-12T11:20:04.302Z,97842.86
2022-09-12T11:23:00.552Z,97836.01
2022-09-12T11:25:35.842Z,97835.23
2022-09-12T11:28:20.758Z,97841.59
2022-09-12T11:31:13.015Z,97837.02
2022-09-12T11:33:46.906Z,97841.98
2022-09-12T11:36:27.673Z,97840.35
2022-09-12T11:39:07.482Z,97837.56
2022-09-12T11:41:40.854Z,97839.40
2022-09-12T11:44:40.140Z,97840.13
2022-09-12T11:47:12.565Z,97834.64
2022-09-12T11:49:49.226Z,97834.47
2022-09-12T11:52:25.415Z,97836.99
2022-09-12T11:55:17.499Z,97836.91
2022-09-12T11:57:53.793Z,97837.41
2022-09-12T12:00:29.096Z,97840.63
2022-09-12T12:03:16.190Z,97846.79
2022-09-12T12:05:56.003Z,97846.21
2022-09-12T12:08:28.992Z,97843.19
2022-09-12T12:11:00.779Z,97842.64
2022-09-12T12:13:32.348Z,97844.55
2022-09-12T12:16:08.096Z,97847.54
2022-09-12T12:18:40.364Z,97842.90
2022-09-12T12:21:29.839Z,97848.57
2022-09-12T12:24:09.994Z,97844.50
2022-09-12T12:26:40.986Z,97837.14
2022-09-12T12:29:14.453Z,97831.00
2022-09-12T12:32:21.618Z,97835.79
2022-09-12T12:34:49.608Z,97836.93
2022-09-12T12:37:21.077Z,97838.11
2022-09-12T12:39:51.337Z,97838.64
2022-09-12T12:42:34.322Z,97839.57
2022-09-12T12:45:08.667Z,97835.09
2022-09-12T12:47:36.452Z,97828.80
2022-09-12T12:50:10.122Z,97827.52
2022-09-12T12:52:50.770Z,97825.86
2022-09-12T12:55:26.849Z,97828.04
2022-09-12T12:57:56.871Z,97826.84
2022-09-12T13:00:34.992Z,97830.23
2022-09-12T13:03:18.318Z,97827.00
2022-09-12T13:05:50.129Z,97823.13
2022-09-12T13:08:17.915Z,97822.00
2022-09-12T13:10:52.336Z,97824.70
2022-09-12T13:13:36.271Z,97824.46
2022-09-12T13:16:04.636Z,97823.60
2022-09-12T13:18:49.986Z,97822.74
2022-09-12T13:21:21.646Z,97818.02
2022-09-12T13:24:17.931Z,97810.88
2022-09-12T13:26:47.886Z,97813.17
2022-09-12T13:29:19.334Z,97808.56
2022-09-12T13:31:53.097Z,97806.16
2022-09-12T13:34:28.029Z,97803.54
2022-09-12T13:37:20.249Z,97803.70
2022-09-12T13:39:56.021Z,97801.73
2022-09-12T13:45:20.532Z,97803.30
2022-09-12T13:48:01.865Z,97805.21
2022-09-12T13:50:45.381Z,97803.16
2022-09-12T13:53:25.993Z,97808.35
2022-09-12T13:55:57.846Z,97811.56
2022-09-12T13:58:31.371Z,97811.67
2022-09-12T14:01:22.941Z,97814.61
2022-09-12T14:04:15.442Z,97815.38
2022-09-12T14:06:52.688Z,97810.83
2022-09-12T14:09:28.849Z,97809.60
2022-09-12T14:11:58.591Z,97812.77
2022-09-12T14:14:43.920Z,97813.45
2022-09-12T14:17:34.971Z,97811.00
2022-09-12T14:20:08.400Z,97808.84
2022-09-12T14:22:39.141Z,97808.50
2022-09-12T14:25:19.389Z,97807.11
2022-09-12T14:27:52.233Z,97801.90
2022-09-12T14:30:27.680Z,97793.45
2022-09-12T14:33:10.789Z,97792.13
2022-09-12T14:35:43.658Z,97795.54
2022-09-12T14:38:39.838Z,97791.73
2022-09-12T14:41:10.248Z,97791.49
2022-09-12T14:43:45.009Z,97790.92
2022-09-12T14:46:24.649Z,97790.95
2022-09-12T14:48:58.053Z,97788.06
2022-09-12T14:51:27.694Z,97787.34
2022-09-12T14:53:55.940Z,97789.84
2022-09-12T14:56:42.843Z,97787.42
2022-09-12T14:59:34.883Z,97785.25
2022-09-12T15:02:24.834Z,97788.40
2022-09-12T15:05:10.839Z,97789.52
2022-09-12T15:07:43.004Z,97788.46
2022-09-12T15:10:25.678Z,97789.83
2022-09-12T15:13:05.908Z,97786.77
2022-09-12T15:15:34.031Z,97787.61
2022-09-12T15:18:06.253Z,97790.14
2022-09-12T15:20:37.950Z,97791.74
2022-09-12T15:23:36.773Z,97789.59
2022-09-12T15:26:05.119Z,97792.98
2022-09-12T15:28:34.435Z,97793.23
2022-09-12T15:31:07.462Z,97798.55
2022-09-12T15:33:35.636Z,97795.61
2022-09-12T15:36:04.094Z,97796.54
2022-09-12T15:38:32.013Z,97802.11
2022-09-12T15:41:23.985Z,97804.36
2022-09-12T15:44:01.279Z,97804.45
2022-09-12T15:46:38.022Z,97803.95
2022-09-12T15:49:14.689Z,97802.86
2022-09-12T15:51:42.597Z,97804.70
2022-09-12T15:54:21.014Z,97805.17
2022-09-12T15:56:57.570Z,97806.41
2022-09-12T15:59:34.605Z,97804.23
2022-09-12T16:02:12.734Z,97804.52
2022-09-12T16:04:50.886Z,97805.06
2022-09-12T16:07:24.821Z,97804.16
2022-09-12T16:09:52.780Z,97808.05
2022-09-12T16:12:20.713Z,97803.27
2022-09-12T16:14:48.914Z,97803.91
2022-09-12T16:17:25.007Z,97795.42
2022-09-12T16:20:02.176Z,97809.00
2022-09-12T16:22:39.302Z,97806.09
2022-09-12T16:25:12.891Z,97803.57
2022-09-12T16:27:51.130Z,97805.67
2022-09-12T16:30:27.627Z,97807.31
2022-09-12T16:33:03.290Z,97809.39
2022-09-12T16:35:42.216Z,97809.86
2022-09-12T16:38:18.194Z,97813.05
2022-09-12T16:40:52.627Z,97807.93
2022-09-12T16:43:30.603Z,97817.85
2022-09-12T16:46:23.880Z,97813.40
2022-09-12T16:48:59.234Z,97813.27
2022-09-12T16:51:38.039Z,97813.79
2022-09-12T16:54:15.859Z,97817.90
2022-09-12T16:56:50.835Z,97799.31
2022-09-12T16:59:18.689Z,97821.02
2022-09-12T17:01:47.034Z,97812.58
2022-09-12T17:04:14.949Z,97815.40
2022-09-12T17:06:45.227Z,97819.82
2022-09-12T17:09:20.038Z,97823.32
2022-09-12T17:11:48.100Z,97820.47
2022-09-12T17:14:16.423Z,97821.67
2022-09-12T17:16:51.487Z,97822.08
2022-09-12T17:22:01.674Z,97826.80
2022-09-12T17:24:29.860Z,97825.73
2022-09-12T17:26:59.593Z,97826.77
2022-09-12T17:29:28.185Z,97824.02
2022-09-12T17:31:56.855Z,97828.32
2022-09-12T17:34:25.491Z,97830.23
2022-09-12T17:36:54.054Z,97830.57
2022-09-12T17:39:23.364Z,97833.73
2022-09-12T17:41:55.614Z,97840.60
2022-09-12T17:44:25.633Z,97837.75
2022-09-12T17:46:54.047Z,97842.55
2022-09-12T17:49:22.522Z,97842.72
2022-09-12T17:51:52.612Z,97847.09
2022-09-12T17:54:21.607Z,97847.86
2022-09-12T17:56:50.465Z,97847.52
2022-09-12T17:59:22.072Z,97849.30
2022-09-12T18:02:09.485Z,97855.69
2022-09-12T18:04:37.794Z,97858.00
2022-09-12T18:07:07.654Z,97860.51
2022-09-12T18:09:36.986Z,97862.12
2022-09-12T18:12:09.100Z,97863.94
2022-09-12T18:14:38.230Z,97866.50
2022-09-12T18:17:08.874Z,97860.25
2022-09-12T18:19:37.841Z,97867.30
2022-09-12T18:22:06.851Z,97865.64
2022-09-12T18:24:35.794Z,97866.23
2022-09-12T18:27:05.367Z,97864.41
2022-09-12T18:29:33.806Z,97864.61
2022-09-12T18:32:02.242Z,97866.52
2022-09-12T18:34:30.566Z,97871.33
2022-09-12T18:36:59.324Z,97873.30
2022-09-12T18:39:28.067Z,97873.80
2022-09-12T18:41:56.591Z,97874.23
2022-09-12T18:44:24.912Z,97876.39
2022-09-12T18:46:53.440Z,97877.16
2022-09-12T18:49:22.965Z,97877.42
2022-09-12T18:51:51.136Z,97877.73
2022-09-12T18:54:20.081Z,97879.52
2022-09-12T18:56:48.590Z,97882.16
2022-09-12T18:59:17.342Z,97879.34
2022-09-12T19:01:46.909Z,97877.80
2022-09-12T19:04:16.825Z,97872.21
2022-09-12T19:06:48.168Z,97868.88
2022-09-12T19:09:26.562Z,97864.23
2022-09-12T19:11:54.871Z,97866.05
2022-09-12T19:14:25.059Z,97867.23
2022-09-12T19:16:53.780Z,97870.98
2022-09-12T19:19:22.281Z,97871.14
2022-09-12T19:21:50.227Z,97871.70
2022-09-12T19:24:18.503Z,97873.34
2022-09-12T19:26:46.506Z,97871.29
2022-09-12T19:29:16.761Z,97867.89
2022-09-12T19:31:45.351Z,97865.59
2022-09-12T19:34:15.015Z,97866.58
2022-09-12T19:36:45.912Z,97868.11
2022-09-12T19:39:21.195Z,97867.71
2022-09-12T19:41:49.848Z,97865.02
2022-09-12T19:44:19.960Z,97865.61
2022-09-12T19:46:48.010Z,97862.60
2022-09-12T19:49:15.961Z,97862.53
2022-09-12T19:51:44.089Z,97861.25
2022-09-12T19:54:12.270Z,97866.94
2022-09-12T19:56:40.241Z,97861.70
2022-09-12T19:59:09.378Z,97858.73
2022-09-12T20:01:37.644Z,97855.00
2022-09-12T20:04:07.343Z,97849.50
2022-09-12T20:06:35.504Z,97850.52
2022-09-12T20:09:03.712Z,97852.58
2022-09-12T20:11:32.017Z,97850.00
2022-09-12T20:13:59.998Z,97850.61
2022-09-12T20:16:29.804Z,97849.33
2022-09-12T20:19:07.279Z,97853.73
2022-09-12T20:21:36.587Z,97851.09
2022-09-12T20:24:07.593Z,97849.06
2022-09-12T20:26:36.393Z,97841.83
2022-09-12T20:29:05.993Z,97840.91
2022-09-12T20:31:34.957Z,97840.77
2022-09-12T20:34:03.664Z,97834.69
2022-09-12T20:36:31.957Z,97835.81
2022-09-12T20:39:01.393Z,97836.07
2022-09-12T20:41:32.021Z,97832.85
2022-09-12T20:44:00.346Z,97835.32
2022-09-12T20:46:29.332Z,97833.16
2022-09-12T20:48:58.722Z,97835.93
2022-09-12T20:51:27.364Z,97832.59
2022-09-12T20:54:03.686Z,97830.66
2022-09-12T20:56:34.174Z,97829.80
2022-09-12T20:59:02.351Z,97826.14
2022-09-12T21:01:34.116Z,97826.49
2022-09-12T21:04:02.316Z,97825.80
2022-09-12T21:06:31.694Z,97826.39
2022-09-12T21:09:00.809Z,97824.79
2022-09-12T21:11:29.295Z,97826.73
2022-09-12T21:13:58.061Z,97832.07
2022-09-12T21:16:26.299Z,97836.18
2022-09-12T21:18:56.822Z,97831.87
2022-09-12T21:21:25.483Z,97828.34
2022-09-12T21:23:57.333Z,97830.02
2022-09-12T21:26:25.224Z,97827.79
2022-09-12T21:28:53.172Z,97825.73
2022-09-12T21:31:21.398Z,97827.27
2022-09-12T21:33:49.592Z,97828.61
2022-09-12T21:36:18.351Z,97825.23
2022-09-12T21:38:46.208Z,97825.77
2022-09-12T21:41:16.224Z,97822.84
2022-09-12T21:43:45.407Z,97821.00
2022-09-12T21:46:13.494Z,97822.30
2022-09-12T21:48:43.307Z,97821.11
2022-09-12T21:51:11.216Z,97823.10
2022-09-12T21:53:40.034Z,97816.20
2022-09-12T21:56:09.040Z,97814.09
2022-09-12T21:58:38.327Z,97811.39
2022-09-12T22:01:09.543Z,97811.96
2022-09-12T22:03:37.806Z,97811.50
2022-09-12T22:06:07.727Z,97811.60
2022-09-12T22:08:38.055Z,97810.63
2022-09-12T22:11:12.988Z,97813.05
2022-09-12T22:13:43.466Z,97813.88
2022-09-12T22:16:12.194Z,97811.11
2022-09-12T22:18:40.231Z,97809.61
2022-09-12T22:21:22.799Z,97807.36
2022-09-12T22:24:10.127Z,97805.67
2022-09-12T22:26:46.426Z,97808.78
2022-09-12T22:29:14.591Z,97806.35
2022-09-12T22:31:43.061Z,97803.95
2022-09-12T22:34:10.979Z,97799.80
2022-09-12T22:36:39.356Z,97797.67
2022-09-12T22:39:08.395Z,97798.19
2022-09-12T22:41:36.495Z,97794.95
2022-09-12T22:44:04.430Z,97791.89
2022-09-12T22:46:33.317Z,97792.35
2022-09-12T22:49:01.350Z,97793.04
2022-09-12T22:51:29.189Z,97795.13
2022-09-12T22:53:57.490Z,97798.02
2022-09-12T22:56:26.377Z,97792.27
2022-09-12T22:58:54.348Z,97791.70
2022-09-12T23:01:22.297Z,97791.44
2022-09-12T23:03:50.953Z,97794.25
2022-09-12T23:06:19.108Z,97794.33
2022-09-12T23:08:46.937Z,97790.31
2022-09-12T23:11:18.047Z,97792.15
2022-09-12T23:13:47.862Z,97789.22
2022-09-12T23:16:19.772Z,97791.19
2022-09-12T23:18:48.911Z,97790.05
2022-09-12T23:21:19.626Z,97790.24
2022-09-12T23:23:48.629Z,97791.13
2022-09-12T23:26:28.437Z,97788.04
2022-09-12T23:28:59.610Z,97785.45
2022-09-12T23:31:30.397Z,97784.42
2022-09-12T23:34:04.236Z,97787.46
2022-09-12T23:36:33.209Z,97784.66
2022-09-12T23:39:01.222Z,97785.84
2022-09-12T23:41:29.537Z,97783.89
2022-09-12T23:43:57.694Z,97786.58
2022-09-12T23:46:25.544Z,97787.23
2022-09-12T23:48:53.658Z,97786.58
2022-09-12T23:51:22.186Z,97785.48
2022-09-12T23:53:50.122Z,97783.29
2022-09-12T23:56:18.030Z,97781.77
2022-09-12T23:58:45.970Z,97781.31
